Terminal Aerodrome Forecast
Issued by NWS

Home | Current Version | Previous Version | Text Only | Print | Product List | Glossary On
Versions: 1 2 3 4 5 6 7 8 9 10 11 12 13
000
FTUS46 KEKA 030534 CCA
TAFUKI
TAF COR
KUKI 030534Z 0306/0406 00000KT P6SM FEW080
     FM031200 00000KT 4SM BR FEW003
     FM031600 VRB03KT P6SM FEW050 SCT200
     FM032100 30007KT P6SM FEW200
     FM040200 00000KT P6SM SKC=

USA.gov is the U.S. government's official web portal to all federal, state and local government web resources and services.